Time;durP1;ratioP1;P1;durP2;ratioP2;P2;SDS_P1;SDS_P2;PMS_P1;PMS_P2;Temp;Humidity;BMP_temperature;BMP_pressure;BME280_temperature;BME280_humidity;BME280_pressure;Samples;Min_cycle;Max_cycle;Signal;HPM_P1;HPM_P2
2022/11/30 00:00:54;;;;;;;8.00;7.33;;;5.60;99.90;;;;;;5034616;28;20203;-49
2022/11/30 00:03:23;;;;;;;7.07;6.40;;;5.60;99.90;;;;;;5048067;28;20206;-49
2022/11/30 00:05:50;;;;;;;8.27;7.57;;;5.60;99.90;;;;;;5043771;28;20207;-50
2022/11/30 00:08:18;;;;;;;8.37;7.50;;;5.60;99.90;;;;;;5037417;28;20279;-49
2022/11/30 00:10:45;;;;;;;7.70;7.00;;;5.70;99.90;;;;;;5033115;28;20209;-49
2022/11/30 00:13:12;;;;;;;7.17;6.57;;;5.70;99.90;;;;;;5046321;28;20627;-51
2022/11/30 00:15:39;;;;;;;6.80;6.20;;;5.70;99.90;;;;;;5045215;28;20209;-50
2022/11/30 00:18:06;;;;;;;6.20;5.80;;;5.70;99.90;;;;;;5041438;28;20229;-50
2022/11/30 00:20:34;;;;;;;5.60;5.20;;;5.70;99.90;;;;;;5041510;28;20203;-48
2022/11/30 00:23:01;;;;;;;6.80;6.10;;;5.70;99.90;;;;;;5034999;28;20654;-49
2022/11/30 00:25:29;;;;;;;6.17;5.67;;;5.70;99.90;;;;;;5040354;28;20206;-50
2022/11/30 00:27:56;;;;;;;6.33;5.80;;;5.70;99.90;;;;;;5031778;28;20236;-50
2022/11/30 00:30:23;;;;;;;5.77;5.27;;;5.70;99.90;;;;;;5032631;28;20204;-49
2022/11/30 00:32:50;;;;;;;5.50;5.17;;;5.70;99.90;;;;;;5043299;28;20209;-50
2022/11/30 00:35:18;;;;;;;6.57;5.97;;;5.70;99.90;;;;;;5043896;28;20199;-48
2022/11/30 00:37:46;;;;;;;6.03;5.63;;;5.70;99.90;;;;;;5040364;28;20220;-49
2022/11/30 00:40:14;;;;;;;6.17;5.40;;;5.70;99.90;;;;;;5040917;28;20235;-50
2022/11/30 00:42:41;;;;;;;6.50;6.00;;;5.70;99.90;;;;;;5050316;28;20197;-49
2022/11/30 00:45:09;;;;;;;5.50;5.00;;;5.80;99.90;;;;;;5036070;28;20207;-50
2022/11/30 00:47:36;;;;;;;11.33;6.30;;;5.80;99.90;;;;;;5031829;28;20228;-49
2022/11/30 00:50:04;;;;;;;6.60;6.00;;;5.80;99.90;;;;;;5031868;28;20564;-51
2022/11/30 00:52:31;;;;;;;6.77;6.10;;;5.90;99.90;;;;;;5048440;28;20213;-49
2022/11/30 00:54:59;;;;;;;6.57;6.00;;;5.90;99.90;;;;;;5049437;28;20208;-49
2022/11/30 00:57:26;;;;;;;6.63;6.03;;;5.90;99.90;;;;;;5040595;28;20216;-49
2022/11/30 00:59:53;;;;;;;5.93;5.43;;;5.80;99.90;;;;;;5028354;28;20619;-49
2022/11/30 01:02:20;;;;;;;7.67;6.13;;;5.80;99.90;;;;;;5037999;28;20215;-48
2022/11/30 01:04:47;;;;;;;6.27;5.83;;;5.80;99.90;;;;;;5045200;28;20206;-50
2022/11/30 01:07:14;;;;;;;6.47;5.87;;;5.80;99.90;;;;;;5014605;28;20726;-49
2022/11/30 01:09:41;;;;;;;6.60;6.10;;;5.80;99.90;;;;;;5036659;28;20240;-49
2022/11/30 01:12:10;;;;;;;8.50;7.80;;;5.70;99.90;;;;;;5043039;28;20210;-49
2022/11/30 01:14:37;;;;;;;10.33;8.20;;;5.70;99.90;;;;;;5034885;28;20204;-49
2022/11/30 01:17:04;;;;;;;8.20;7.37;;;5.80;99.90;;;;;;5034813;28;20732;-51
2022/11/30 01:19:31;;;;;;;9.40;8.43;;;5.70;99.90;;;;;;5038279;28;20198;-48
2022/11/30 01:21:58;;;;;;;8.23;7.63;;;5.70;99.90;;;;;;5034600;28;20274;-49
2022/11/30 01:24:25;;;;;;;7.67;7.13;;;5.70;99.90;;;;;;5035589;28;20208;-50
2022/11/30 01:26:52;;;;;;;7.50;6.83;;;5.70;99.90;;;;;;5042262;28;20271;-50
2022/11/30 01:29:21;;;;;;;7.13;6.43;;;5.70;99.90;;;;;;5043281;28;20604;-49
2022/11/30 01:31:48;;;;;;;6.70;6.20;;;5.60;99.90;;;;;;5043161;28;20206;-50
2022/11/30 01:34:15;;;;;;;5.53;5.03;;;5.60;99.90;;;;;;5039489;28;20214;-49
2022/11/30 01:36:42;;;;;;;6.77;6.17;;;5.60;99.90;;;;;;5039685;28;20224;-49
2022/11/30 01:39:09;;;;;;;5.67;5.17;;;5.60;99.90;;;;;;5035675;28;20198;-48
2022/11/30 01:41:37;;;;;;;6.30;5.90;;;5.60;99.90;;;;;;5033916;28;20209;-49
2022/11/30 01:44:41;;;;;;;7.00;6.20;;;5.60;99.90;;;;;;5038561;28;20207;-49
2022/11/30 01:47:12;;;;;;;8.47;7.03;;;5.70;99.90;;;;;;5031650;28;20693;-49
2022/11/30 01:49:44;;;;;;;6.00;5.50;;;5.70;99.90;;;;;;5028899;28;20225;-48
2022/11/30 01:52:15;;;;;;;6.00;5.60;;;5.70;99.90;;;;;;5030559;28;20210;-49
2022/11/30 01:54:45;;;;;;;5.93;5.50;;;5.80;99.90;;;;;;5047835;28;20675;-48
2022/11/30 01:57:18;;;;;;;6.17;5.37;;;5.70;99.90;;;;;;5031802;28;20230;-49
2022/11/30 01:59:46;;;;;;;6.23;5.63;;;5.70;99.90;;;;;;5040826;28;20267;-49
2022/11/30 02:02:14;;;;;;;6.03;5.50;;;5.70;99.90;;;;;;5040071;28;20203;-49
2022/11/30 02:04:41;;;;;;;6.10;5.43;;;5.80;99.90;;;;;;5031105;28;20201;-49
2022/11/30 02:07:09;;;;;;;6.63;6.03;;;5.80;99.90;;;;;;5031609;28;20325;-50
2022/11/30 02:09:44;;;;;;;6.67;6.07;;;5.70;99.90;;;;;;5031205;28;20243;-49
2022/11/30 02:12:20;;;;;;;7.27;6.70;;;5.70;99.90;;;;;;5042190;28;20210;-50
2022/11/30 02:14:51;;;;;;;7.07;6.40;;;5.70;99.90;;;;;;5038984;28;20199;-49
2022/11/30 02:17:27;;;;;;;6.33;5.73;;;5.70;99.90;;;;;;5039160;28;20220;-49
2022/11/30 02:20:14;;;;;;;7.30;6.47;;;5.70;99.90;;;;;;5040508;28;20216;-49
2022/11/30 02:22:55;;;;;;;6.50;6.00;;;5.70;99.90;;;;;;5031243;28;20213;-51
2022/11/30 02:25:29;;;;;;;5.83;5.43;;;5.80;99.90;;;;;;5037985;28;20206;-49
2022/11/30 02:28:23;;;;;;;6.30;5.83;;;5.70;99.90;;;;;;5037493;28;20231;-50
2022/11/30 02:30:53;;;;;;;7.63;7.03;;;5.70;99.90;;;;;;5053063;28;20653;-48
2022/11/30 02:33:25;;;;;;;8.93;7.17;;;5.70;99.90;;;;;;5036120;28;20244;-49
2022/11/30 02:35:55;;;;;;;6.67;6.10;;;5.70;99.90;;;;;;5033618;28;20253;-49
2022/11/30 02:38:23;;;;;;;6.47;5.87;;;5.70;99.90;;;;;;5041114;28;20200;-49
2022/11/30 02:40:50;;;;;;;7.03;6.47;;;5.80;99.90;;;;;;5053011;28;20242;-50
2022/11/30 02:43:19;;;;;;;7.63;6.87;;;5.80;99.90;;;;;;5042638;28;20208;-49
2022/11/30 02:45:53;;;;;;;6.77;5.93;;;5.80;99.90;;;;;;5043354;28;20662;-49
2022/11/30 02:48:29;;;;;;;7.40;5.80;;;5.70;99.90;;;;;;5032985;28;20233;-49
2022/11/30 02:51:00;;;;;;;5.77;5.27;;;5.80;99.90;;;;;;5051523;28;20209;-49
2022/11/30 02:53:27;;;;;;;6.40;5.70;;;5.70;99.90;;;;;;5036072;28;20203;-49
2022/11/30 02:55:55;;;;;;;6.47;5.90;;;5.70;99.90;;;;;;5035079;28;20204;-50
2022/11/30 02:58:22;;;;;;;5.87;5.47;;;5.70;99.90;;;;;;5029120;28;20208;-49
2022/11/30 03:00:49;;;;;;;6.13;5.53;;;5.70;99.90;;;;;;5034193;28;20623;-48
2022/11/30 03:03:16;;;;;;;6.80;6.10;;;5.70;99.90;;;;;;5041778;28;20227;-49
2022/11/30 03:05:44;;;;;;;8.27;5.27;;;5.70;99.90;;;;;;5043855;28;20675;-48
2022/11/30 03:08:12;;;;;;;4.13;3.83;;;5.70;99.90;;;;;;5046194;28;20225;-49
2022/11/30 03:10:39;;;;;;;4.93;4.63;;;5.70;99.90;;;;;;5048075;28;20216;-49
2022/11/30 03:13:06;;;;;;;4.67;4.27;;;5.70;99.90;;;;;;5033465;28;20287;-49
2022/11/30 03:15:39;;;;;;;3.73;3.43;;;5.70;99.90;;;;;;5042299;28;20266;-50
2022/11/30 03:18:06;;;;;;;3.10;2.90;;;5.70;99.90;;;;;;5034945;28;20220;-49
2022/11/30 03:20:33;;;;;;;3.53;3.33;;;5.70;99.90;;;;;;5031843;28;20211;-49
2022/11/30 03:23:02;;;;;;;3.43;3.27;;;5.70;99.90;;;;;;5040879;28;20555;-50
2022/11/30 03:25:29;;;;;;;4.33;3.07;;;5.70;99.90;;;;;;5042800;28;20207;-50
2022/11/30 03:27:56;;;;;;;4.67;3.53;;;5.70;99.90;;;;;;5033598;28;20224;-49
2022/11/30 03:30:23;;;;;;;2.80;2.63;;;5.70;99.90;;;;;;5033957;28;20202;-49
2022/11/30 03:32:51;;;;;;;3.27;3.17;;;5.70;99.90;;;;;;5036363;28;20209;-49
2022/11/30 03:35:18;;;;;;;2.70;2.60;;;5.70;99.90;;;;;;5041062;28;20224;-49
2022/11/30 03:37:46;;;;;;;2.80;2.60;;;5.70;99.90;;;;;;5041300;28;20227;-51
2022/11/30 03:40:15;;;;;;;2.80;2.70;;;5.70;99.90;;;;;;5049179;28;20200;-49
2022/11/30 03:42:42;;;;;;;3.50;3.30;;;5.70;99.90;;;;;;5035134;28;20220;-49
2022/11/30 03:45:10;;;;;;;3.93;3.63;;;5.70;99.90;;;;;;5033884;28;20249;-50
2022/11/30 03:47:37;;;;;;;3.27;2.97;;;5.70;99.90;;;;;;5033743;28;20227;-50
2022/11/30 03:50:05;;;;;;;4.03;3.67;;;5.70;99.90;;;;;;5053746;28;20255;-50
2022/11/30 03:52:32;;;;;;;4.47;3.57;;;5.70;99.90;;;;;;5046890;28;20715;-51
2022/11/30 03:54:59;;;;;;;3.40;3.20;;;5.70;99.90;;;;;;5043429;28;20205;-49
2022/11/30 03:57:28;;;;;;;3.60;3.40;;;5.70;99.90;;;;;;5040717;28;20228;-49
2022/11/30 03:59:55;;;;;;;4.37;4.07;;;5.70;99.90;;;;;;5037396;28;20530;-49
2022/11/30 04:02:22;;;;;;;4.17;3.50;;;5.70;99.90;;;;;;5035310;28;20704;-50
2022/11/30 04:04:49;;;;;;;4.47;3.20;;;5.70;99.90;;;;;;5041274;28;20215;-49
2022/11/30 04:07:16;;;;;;;5.17;4.77;;;5.70;99.90;;;;;;5044574;28;20367;-50
2022/11/30 04:09:43;;;;;;;5.97;5.47;;;5.70;99.90;;;;;;5035808;28;20255;-50
2022/11/30 04:12:10;;;;;;;12.57;9.23;;;5.70;99.90;;;;;;5037505;28;20823;-50
2022/11/30 04:14:39;;;;;;;9.30;8.03;;;5.60;99.90;;;;;;5033983;28;20203;-49
2022/11/30 04:17:06;;;;;;;9.03;8.03;;;5.60;99.90;;;;;;5031924;28;20221;-49
2022/11/30 04:19:33;;;;;;;11.03;7.50;;;5.70;99.90;;;;;;5049652;28;20218;-49
2022/11/30 04:22:00;;;;;;;7.60;6.87;;;5.60;99.90;;;;;;5047496;28;20207;-49
2022/11/30 04:24:27;;;;;;;5.97;5.47;;;5.60;99.90;;;;;;5040332;28;20681;-49
2022/11/30 04:26:54;;;;;;;4.33;4.03;;;5.60;99.90;;;;;;5043774;28;20227;-49
2022/11/30 04:29:21;;;;;;;6.00;5.40;;;5.60;99.90;;;;;;5040904;28;20273;-50
2022/11/30 04:31:49;;;;;;;5.20;4.70;;;5.60;99.90;;;;;;5038136;28;20258;-50
2022/11/30 04:34:16;;;;;;;4.80;4.40;;;5.60;99.90;;;;;;5045580;28;20254;-48
2022/11/30 04:36:43;;;;;;;4.63;4.20;;;5.60;99.90;;;;;;5050238;28;20241;-51
2022/11/30 04:39:10;;;;;;;4.20;3.90;;;5.60;99.90;;;;;;5053282;28;20248;-49
2022/11/30 04:41:37;;;;;;;4.03;3.17;;;5.60;99.90;;;;;;5045850;28;20216;-48
2022/11/30 04:44:04;;;;;;;3.80;3.60;;;5.70;99.90;;;;;;5056845;28;20255;-49
2022/11/30 04:46:31;;;;;;;4.23;3.93;;;5.70;99.90;;;;;;5040530;28;20278;-49
2022/11/30 04:48:59;;;;;;;3.87;3.67;;;5.70;99.90;;;;;;5040833;28;20638;-49
2022/11/30 04:51:26;;;;;;;4.57;3.83;;;5.70;99.90;;;;;;5031812;28;20733;-48
2022/11/30 04:53:54;;;;;;;3.57;3.37;;;5.60;99.90;;;;;;5030899;28;20235;-49
2022/11/30 04:56:21;;;;;;;3.90;3.60;;;5.60;99.90;;;;;;5029909;28;20326;-50
2022/11/30 04:58:48;;;;;;;3.80;3.53;;;5.60;99.90;;;;;;5034432;28;20625;-49
2022/11/30 05:01:15;;;;;;;5.10;4.40;;;5.70;99.90;;;;;;5026821;28;20208;-50
2022/11/30 05:03:42;;;;;;;7.13;4.00;;;5.70;99.90;;;;;;5039113;28;20629;-48
2022/11/30 05:06:10;;;;;;;5.17;3.63;;;5.60;99.90;;;;;;5034907;28;20233;-49
2022/11/30 05:08:37;;;;;;;4.13;3.63;;;5.60;99.90;;;;;;5040063;28;20204;-50
2022/11/30 05:11:04;;;;;;;4.10;3.70;;;5.60;99.90;;;;;;5017277;28;20276;-49
2022/11/30 05:13:31;;;;;;;3.50;3.20;;;5.60;99.90;;;;;;5025180;28;20207;-50
2022/11/30 05:15:58;;;;;;;4.47;3.97;;;5.60;99.90;;;;;;5027955;28;20258;-49
2022/11/30 05:18:26;;;;;;;3.87;3.63;;;5.60;99.90;;;;;;5026301;28;20208;-50
2022/11/30 05:20:53;;;;;;;3.97;3.67;;;5.50;99.90;;;;;;5036219;28;20303;-49
2022/11/30 05:23:22;;;;;;;4.93;4.23;;;5.50;99.90;;;;;;5035763;28;20266;-48
2022/11/30 05:25:49;;;;;;;5.00;4.20;;;5.60;99.90;;;;;;5031404;28;20621;-49
2022/11/30 05:28:16;;;;;;;5.43;4.70;;;5.50;99.90;;;;;;5031775;28;20206;-49
2022/11/30 05:30:44;;;;;;;4.87;4.40;;;5.60;99.90;;;;;;5028383;28;20235;-48
2022/11/30 05:33:11;;;;;;;5.67;4.30;;;5.50;99.90;;;;;;5030958;28;20201;-50
2022/11/30 05:35:39;;;;;;;4.40;4.00;;;5.50;99.90;;;;;;5031611;28;20204;-48
2022/11/30 05:38:06;;;;;;;5.60;4.73;;;5.50;99.90;;;;;;5031623;28;20228;-49
2022/11/30 05:40:34;;;;;;;6.43;4.80;;;5.50;99.90;;;;;;5031557;28;20620;-48
2022/11/30 05:43:02;;;;;;;4.53;4.23;;;5.50;99.90;;;;;;5031068;28;20206;-49
2022/11/30 05:45:30;;;;;;;4.43;4.00;;;5.50;99.90;;;;;;5029297;28;20258;-50
2022/11/30 05:47:57;;;;;;;3.93;3.63;;;5.50;99.90;;;;;;5030676;28;20297;-48
2022/11/30 05:50:24;;;;;;;4.70;4.30;;;5.50;99.90;;;;;;5039149;28;20225;-49
2022/11/30 05:52:54;;;;;;;4.40;4.00;;;5.50;99.90;;;;;;5049873;28;20200;-49
2022/11/30 05:55:22;;;;;;;4.07;3.77;;;5.50;99.90;;;;;;5050898;28;20596;-49
2022/11/30 05:57:50;;;;;;;4.93;4.37;;;5.50;99.90;;;;;;5050679;28;20832;-49
2022/11/30 06:00:18;;;;;;;8.20;7.13;;;5.50;99.90;;;;;;5051255;28;20241;-50
2022/11/30 06:02:46;;;;;;;31.43;17.73;;;5.50;99.90;;;;;;5048646;28;20259;-49
2022/11/30 06:05:13;;;;;;;52.00;26.97;;;5.50;99.90;;;;;;5028461;28;20207;-48
2022/11/30 06:07:40;;;;;;;51.53;25.10;;;5.60;99.90;;;;;;5037037;28;20663;-49
2022/11/30 06:10:08;;;;;;;48.17;26.33;;;5.60;99.90;;;;;;5034570;28;20234;-49
2022/11/30 06:12:35;;;;;;;38.83;21.03;;;5.60;99.90;;;;;;5029193;28;20249;-49
2022/11/30 06:15:04;;;;;;;38.13;21.57;;;5.60;99.90;;;;;;5033756;28;20192;-49
2022/11/30 06:17:31;;;;;;;49.17;25.03;;;5.60;99.90;;;;;;5049488;28;20281;-50
2022/11/30 06:19:58;;;;;;;48.97;25.70;;;5.60;99.90;;;;;;5050897;28;20202;-50
2022/11/30 06:22:25;;;;;;;48.33;24.70;;;5.60;99.90;;;;;;5033795;28;20658;-49
2022/11/30 06:24:52;;;;;;;43.40;23.63;;;5.60;99.90;;;;;;5040675;28;20204;-49
2022/11/30 06:27:19;;;;;;;45.07;23.67;;;5.50;99.90;;;;;;5038714;28;20237;-51
2022/11/30 06:29:46;;;;;;;40.10;21.30;;;5.50;99.90;;;;;;5048960;28;20223;-49
2022/11/30 06:32:14;;;;;;;34.17;17.87;;;5.60;99.90;;;;;;5042472;28;20207;-50
2022/11/30 06:34:42;;;;;;;39.13;19.30;;;5.60;99.90;;;;;;5042026;28;20200;-49
2022/11/30 06:37:09;;;;;;;25.40;16.00;;;5.60;99.90;;;;;;5030121;28;20270;-49
2022/11/30 06:39:39;;;;;;;23.43;14.67;;;5.60;99.90;;;;;;5047359;28;20589;-48
2022/11/30 06:42:06;;;;;;;25.23;12.87;;;5.60;99.90;;;;;;5042374;28;20233;-48
2022/11/30 06:44:39;;;;;;;18.73;12.43;;;5.60;99.90;;;;;;5027666;28;20208;-49
2022/11/30 06:47:06;;;;;;;14.07;9.47;;;5.60;99.90;;;;;;5037601;28;20224;-49
2022/11/30 06:49:38;;;;;;;13.67;8.90;;;5.60;99.90;;;;;;5033462;28;20286;-49
2022/11/30 06:52:05;;;;;;;7.27;6.13;;;5.60;99.90;;;;;;5029208;28;20200;-49
2022/11/30 06:54:36;;;;;;;6.57;5.90;;;5.60;99.90;;;;;;5024607;28;20204;-49
2022/11/30 06:57:03;;;;;;;6.43;5.83;;;5.60;99.90;;;;;;5039399;28;20222;-49
2022/11/30 06:59:30;;;;;;;5.77;5.23;;;5.60;99.90;;;;;;5045837;28;20906;-50
2022/11/30 07:01:58;;;;;;;5.53;5.00;;;5.60;99.90;;;;;;5044205;28;20214;-49
2022/11/30 07:04:25;;;;;;;5.77;5.37;;;5.70;99.90;;;;;;5030017;28;20294;-49
2022/11/30 07:06:53;;;;;;;6.37;5.57;;;5.80;99.90;;;;;;5029849;28;20239;-49
2022/11/30 07:09:20;;;;;;;7.47;5.70;;;5.80;99.90;;;;;;5030190;28;20590;-49
2022/11/30 07:11:47;;;;;;;8.90;6.40;;;5.80;99.90;;;;;;5032495;28;20228;-49
2022/11/30 07:14:14;;;;;;;6.73;6.13;;;5.80;99.90;;;;;;5038525;28;20263;-48
2022/11/30 07:16:41;;;;;;;8.07;7.37;;;5.80;99.90;;;;;;5053871;28;20227;-50
2022/11/30 07:19:08;;;;;;;7.17;6.67;;;5.80;99.90;;;;;;5039731;28;20201;-49
2022/11/30 07:21:35;;;;;;;8.43;7.63;;;5.80;99.90;;;;;;5040337;28;20211;-49
2022/11/30 07:26:48;;;;;;;9.40;8.37;;;5.80;99.90;;;;;;5042215;28;20232;-50
2022/11/30 07:29:15;;;;;;;15.53;10.73;;;5.90;99.90;;;;;;5034005;28;20208;-50
2022/11/30 07:31:42;;;;;;;13.10;9.73;;;6.00;99.90;;;;;;5031610;28;20273;-49
2022/11/30 07:34:11;;;;;;;17.33;12.15;;;6.00;99.90;;;;;;5031853;28;20522;-49
2022/11/30 07:36:38;;;;;;;13.17;9.37;;;6.00;99.90;;;;;;5028219;28;20214;-49
2022/11/30 07:39:07;;;;;;;17.40;10.93;;;6.00;99.90;;;;;;5028694;28;20215;-48
2022/11/30 07:41:34;;;;;;;19.17;11.73;;;5.90;99.90;;;;;;5036593;28;20642;-49
2022/11/30 07:44:01;;;;;;;19.53;11.90;;;6.00;99.90;;;;;;5040561;28;20646;-49
2022/11/30 07:46:28;;;;;;;15.90;11.27;;;6.00;99.90;;;;;;5033116;28;20233;-50
2022/11/30 07:48:55;;;;;;;16.10;11.40;;;6.00;99.90;;;;;;5032539;28;20252;-49
2022/11/30 07:51:22;;;;;;;22.43;13.53;;;6.00;99.90;;;;;;5026932;28;20222;-49
2022/11/30 07:53:50;;;;;;;24.03;12.90;;;6.00;99.90;;;;;;5041027;28;20257;-49
2022/11/30 07:56:20;;;;;;;19.63;11.70;;;6.00;99.90;;;;;;5033593;28;20213;-49
2022/11/30 07:58:47;;;;;;;21.37;13.70;;;6.00;99.90;;;;;;5040983;28;20204;-49
2022/11/30 08:01:16;;;;;;;26.80;15.47;;;6.00;99.90;;;;;;5042086;28;20257;-49
2022/11/30 08:03:43;;;;;;;25.37;15.03;;;6.00;99.90;;;;;;5037948;28;20220;-48
2022/11/30 08:06:12;;;;;;;22.67;13.73;;;5.90;99.90;;;;;;5033152;28;20236;-50
2022/11/30 08:08:41;;;;;;;27.47;14.70;;;6.00;99.90;;;;;;5040021;28;20277;-49
2022/11/30 08:11:09;;;;;;;30.93;15.83;;;5.90;99.90;;;;;;5045695;28;20258;-49
2022/11/30 08:13:37;;;;;;;33.20;18.53;;;6.00;99.90;;;;;;5052378;28;20249;-49
2022/11/30 08:16:06;;;;;;;36.10;17.53;;;6.00;99.90;;;;;;5053072;28;20213;-48
2022/11/30 08:18:33;;;;;;;28.23;15.07;;;6.00;99.90;;;;;;5035648;28;20628;-49
2022/11/30 08:21:02;;;;;;;28.53;15.70;;;5.90;99.90;;;;;;5035398;28;20194;-49
2022/11/30 08:23:30;;;;;;;32.03;17.37;;;5.90;99.90;;;;;;5043505;28;20207;-50
2022/11/30 08:26:01;;;;;;;25.43;14.80;;;6.00;99.90;;;;;;5044633;28;20613;-50
2022/11/30 08:28:29;;;;;;;28.77;16.80;;;6.10;99.90;;;;;;5043605;28;20280;-49
2022/11/30 08:31:02;;;;;;;27.70;15.63;;;6.10;99.90;;;;;;5043521;28;20252;-48
2022/11/30 08:33:30;;;;;;;24.73;15.67;;;6.10;99.90;;;;;;5039699;28;20664;-48
2022/11/30 08:36:06;;;;;;;28.93;15.33;;;6.10;99.90;;;;;;5032740;28;20548;-49
2022/11/30 08:38:33;;;;;;;33.20;16.77;;;6.20;99.90;;;;;;5035475;28;20292;-49
2022/11/30 08:41:00;;;;;;;28.30;17.07;;;6.20;99.90;;;;;;5031949;28;20245;-49
2022/11/30 08:43:28;;;;;;;28.10;17.40;;;6.20;99.90;;;;;;5049248;28;20198;-49
2022/11/30 08:45:55;;;;;;;37.10;20.33;;;6.20;99.90;;;;;;5047440;28;20212;-49
2022/11/30 08:48:23;;;;;;;31.07;18.20;;;6.20;99.90;;;;;;5037253;28;20651;-49
2022/11/30 08:50:50;;;;;;;27.90;16.30;;;6.30;99.90;;;;;;5052528;28;20219;-50
2022/11/30 08:53:17;;;;;;;30.50;17.17;;;6.30;99.90;;;;;;5040311;28;20672;-48
2022/11/30 08:55:44;;;;;;;31.97;18.23;;;6.40;99.90;;;;;;5035798;28;20625;-50
2022/11/30 08:58:11;;;;;;;28.33;15.23;;;6.50;99.90;;;;;;5043497;28;20220;-49
2022/11/30 09:00:38;;;;;;;28.53;15.60;;;6.60;99.90;;;;;;5032172;28;20562;-48
2022/11/30 09:03:05;;;;;;;26.80;15.47;;;6.60;99.90;;;;;;5031375;28;20534;-48
2022/11/30 09:05:33;;;;;;;25.27;15.47;;;6.60;99.90;;;;;;5032493;28;20259;-49
2022/11/30 09:08:00;;;;;;;19.53;13.10;;;6.70;99.90;;;;;;5032124;28;20786;-49
2022/11/30 09:10:27;;;;;;;28.30;14.70;;;6.60;99.90;;;;;;5031826;28;20776;-49
2022/11/30 09:12:54;;;;;;;23.57;13.17;;;6.60;99.90;;;;;;5027155;28;20672;-49
2022/11/30 09:15:21;;;;;;;23.40;12.97;;;6.60;99.90;;;;;;5011944;28;20629;-48
2022/11/30 09:17:48;;;;;;;24.13;13.50;;;6.50;99.90;;;;;;5012402;28;20236;-50
2022/11/30 09:20:16;;;;;;;26.47;14.17;;;6.60;99.90;;;;;;5012414;28;20201;-48
2022/11/30 09:22:44;;;;;;;23.03;13.40;;;6.70;99.90;;;;;;5012270;28;20216;-50
2022/11/30 09:25:11;;;;;;;26.40;14.13;;;6.70;99.90;;;;;;5011481;28;20255;-49
2022/11/30 09:27:38;;;;;;;27.17;14.83;;;6.70;99.90;;;;;;5020701;28;20230;-48
2022/11/30 09:30:07;;;;;;;23.70;13.30;;;6.70;99.90;;;;;;5031738;28;20222;-48
2022/11/30 09:32:33;;;;;;;24.50;13.40;;;6.70;99.90;;;;;;5031205;28;20200;-48
2022/11/30 09:35:01;;;;;;;23.50;13.87;;;6.80;99.90;;;;;;5030169;28;20204;-48
2022/11/30 09:37:27;;;;;;;22.17;13.53;;;6.70;99.90;;;;;;5031521;28;20274;-49
2022/11/30 09:39:56;;;;;;;20.93;11.13;;;6.70;99.90;;;;;;5032033;28;20192;-49
2022/11/30 09:42:42;;;;;;;17.20;11.70;;;6.70;99.90;;;;;;5031751;28;20202;-49
2022/11/30 09:45:16;;;;;;;16.33;10.50;;;6.70;99.90;;;;;;5029707;28;20238;-48
2022/11/30 09:48:31;;;;;;;18.50;12.15;;;6.80;99.90;;;;;;5016050;28;20868;-48
2022/11/30 09:51:04;;;;;;;14.48;10.70;;;6.80;99.90;;;;;;5000390;28;20475;-49
2022/11/30 09:53:40;;;;;;;15.30;10.67;;;6.90;99.90;;;;;;5031564;28;20287;-48
2022/11/30 09:56:19;;;;;;;14.37;10.00;;;6.80;99.90;;;;;;5036042;28;20211;-48
2022/11/30 09:58:50;;;;;;;12.73;9.50;;;6.80;99.90;;;;;;5011702;28;20295;-49
2022/11/30 10:01:19;;;;;;;14.20;9.53;;;6.80;99.90;;;;;;5028644;28;20208;-49
2022/11/30 10:03:47;;;;;;;13.43;9.40;;;6.70;99.90;;;;;;5028217;28;20219;-49
2022/11/30 10:06:22;;;;;;;14.93;9.30;;;6.80;99.90;;;;;;5030759;28;20384;-48
2022/11/30 10:09:06;;;;;;;16.63;9.90;;;6.80;99.90;;;;;;5029680;28;20213;-49
2022/11/30 10:11:47;;;;;;;14.20;9.53;;;6.90;99.90;;;;;;5036047;28;20221;-49
2022/11/30 10:14:40;;;;;;;13.10;8.57;;;6.90;99.90;;;;;;5021289;28;20217;-48
2022/11/30 10:17:18;;;;;;;12.20;8.97;;;6.90;99.90;;;;;;5036081;28;20228;-48
2022/11/30 10:20:05;;;;;;;10.30;8.40;;;6.90;99.90;;;;;;5028006;28;20207;-49
2022/11/30 10:22:47;;;;;;;12.97;8.37;;;6.90;99.90;;;;;;5028255;28;20199;-48
2022/11/30 10:25:21;;;;;;;13.17;8.50;;;6.80;99.90;;;;;;5078397;22;20635;-52
2022/11/30 10:27:52;;;;;;;13.27;8.57;;;6.90;99.90;;;;;;5069349;28;20650;-52
2022/11/30 10:30:34;;;;;;;9.87;7.20;;;6.90;99.90;;;;;;5069146;28;20757;-52
2022/11/30 10:33:10;;;;;;;12.30;7.27;;;6.90;99.90;;;;;;5060110;28;20241;-53
2022/11/30 10:35:41;;;;;;;12.67;7.73;;;6.90;99.90;;;;;;5052890;28;20285;-52
2022/11/30 10:38:16;;;;;;;14.33;8.43;;;7.00;99.90;;;;;;5051012;28;20685;-54
2022/11/30 10:40:50;;;;;;;16.23;11.03;;;7.00;99.90;;;;;;5053200;28;20799;-53
2022/11/30 10:43:25;;;;;;;11.73;8.67;;;6.90;99.90;;;;;;5038361;28;20265;-52
2022/11/30 10:45:53;;;;;;;13.60;8.37;;;6.90;99.90;;;;;;5050917;28;20211;-51
2022/11/30 10:48:25;;;;;;;12.93;8.77;;;6.80;99.90;;;;;;5045802;28;20209;-51
2022/11/30 10:50:53;;;;;;;15.03;8.77;;;6.60;99.90;;;;;;5057495;28;20224;-51
2022/11/30 10:53:20;;;;;;;14.43;9.23;;;6.50;99.90;;;;;;5052589;28;20199;-51
2022/11/30 10:55:56;;;;;;;12.43;7.50;;;6.40;99.90;;;;;;5061767;28;20693;-52
2022/11/30 10:58:29;;;;;;;13.17;8.53;;;6.40;99.90;;;;;;5066575;28;20207;-51
2022/11/30 11:01:02;;;;;;;13.83;9.03;;;6.40;99.90;;;;;;5066191;28;20645;-52
2022/11/30 11:03:29;;;;;;;15.63;9.00;;;6.40;99.90;;;;;;5045555;28;20213;-51
2022/11/30 11:06:13;;;;;;;13.60;8.10;;;6.40;99.90;;;;;;5053898;28;20204;-52
2022/11/30 11:08:44;;;;;;;13.57;8.30;;;6.30;99.90;;;;;;5049259;28;20262;-52
2022/11/30 11:11:32;;;;;;;17.17;8.87;;;6.10;99.90;;;;;;5051517;28;20269;-51
2022/11/30 11:14:17;;;;;;;14.83;9.00;;;6.00;99.90;;;;;;5050208;28;20247;-51
2022/11/30 11:16:53;;;;;;;11.57;8.03;;;6.00;99.90;;;;;;5060286;28;20207;-52
2022/11/30 11:19:33;;;;;;;13.80;8.30;;;6.00;99.90;;;;;;5055440;28;20203;-52
2022/11/30 11:22:03;;;;;;;13.30;7.43;;;6.00;99.90;;;;;;5061785;28;20279;-51
2022/11/30 11:24:31;;;;;;;12.73;6.97;;;6.00;99.90;;;;;;5045817;28;20319;-50
2022/11/30 11:26:58;;;;;;;17.73;10.40;;;6.00;99.90;;;;;;5050238;28;20243;-52
2022/11/30 11:29:35;;;;;;;22.50;10.33;;;5.90;99.90;;;;;;5044155;28;20246;-50
2022/11/30 11:32:23;;;;;;;18.17;10.80;;;5.90;99.90;;;;;;5037441;28;20232;-54
2022/11/30 11:34:50;;;;;;;17.90;10.60;;;5.90;99.90;;;;;;5037150;28;20228;-50
2022/11/30 11:37:25;;;;;;;16.87;9.47;;;6.00;99.90;;;;;;5037411;28;20204;-51
2022/11/30 11:40:04;;;;;;;16.27;10.70;;;6.00;99.90;;;;;;5039099;28;20199;-51
2022/11/30 11:42:35;;;;;;;13.30;8.70;;;6.00;99.90;;;;;;5037538;28;20204;-51
2022/11/30 11:45:06;;;;;;;16.50;9.60;;;6.00;99.90;;;;;;5039451;28;20222;-51
2022/11/30 11:47:40;;;;;;;17.63;9.53;;;6.10;99.90;;;;;;5038731;28;20249;-51
2022/11/30 11:50:32;;;;;;;14.87;9.97;;;6.20;99.90;;;;;;5038966;28;20310;-52
2022/11/30 11:53:25;;;;;;;20.43;9.67;;;6.20;99.90;;;;;;5049410;28;20219;-55
2022/11/30 11:55:57;;;;;;;16.47;9.73;;;6.30;99.90;;;;;;5035506;28;20202;-51
2022/11/30 11:58:36;;;;;;;15.70;8.97;;;6.30;99.90;;;;;;5050763;28;20203;-50
2022/11/30 12:01:10;;;;;;;14.23;8.40;;;6.20;99.90;;;;;;5034654;28;20645;-52
2022/11/30 12:03:44;;;;;;;14.83;9.53;;;6.20;99.90;;;;;;5035245;28;20212;-52
2022/11/30 12:06:15;;;;;;;19.43;11.80;;;6.10;99.90;;;;;;5063363;28;20203;-54
2022/11/30 12:08:46;;;;;;;14.17;8.80;;;6.20;99.90;;;;;;5049930;28;20614;-52
2022/11/30 12:11:17;;;;;;;13.07;7.97;;;6.10;99.90;;;;;;5039481;28;20242;-51
2022/11/30 12:13:45;;;;;;;14.43;9.40;;;6.20;99.90;;;;;;5034411;28;20901;-52
2022/11/30 12:16:29;;;;;;;11.93;8.40;;;6.10;99.90;;;;;;5039701;28;20237;-54
2022/11/30 12:19:02;;;;;;;14.83;8.90;;;6.00;99.90;;;;;;5038588;28;20210;-55
2022/11/30 12:21:42;;;;;;;12.53;8.03;;;6.10;99.90;;;;;;5050886;28;20265;-53
2022/11/30 12:24:44;;;;;;;15.07;7.90;;;6.10;99.90;;;;;;5054371;28;20259;-52
2022/11/30 12:27:22;;;;;;;15.37;9.37;;;6.10;99.90;;;;;;5042860;28;20210;-49
2022/11/30 12:30:00;;;;;;;13.63;8.40;;;6.00;99.90;;;;;;5053014;28;20701;-51
2022/11/30 12:32:35;;;;;;;16.03;10.27;;;6.00;99.90;;;;;;5041838;28;20639;-50
2022/11/30 12:35:20;;;;;;;13.63;8.30;;;6.00;99.90;;;;;;5036990;28;20227;-51
2022/11/30 12:37:57;;;;;;;13.03;8.03;;;6.00;99.90;;;;;;5046328;28;20240;-52
2022/11/30 12:40:35;;;;;;;18.73;9.47;;;6.00;99.90;;;;;;5059076;28;20202;-53
2022/11/30 12:43:15;;;;;;;14.57;9.00;;;6.00;99.90;;;;;;5046933;28;20259;-55
2022/11/30 12:45:44;;;;;;;14.47;8.73;;;6.00;99.90;;;;;;5042145;28;20231;-56
2022/11/30 12:48:25;;;;;;;17.97;9.63;;;6.00;99.90;;;;;;5033241;28;20200;-52
2022/11/30 12:51:04;;;;;;;12.10;8.47;;;5.90;99.90;;;;;;5040635;28;20227;-52
2022/11/30 12:53:38;;;;;;;14.13;8.33;;;5.80;99.90;;;;;;5044212;28;20260;-50
2022/11/30 12:56:16;;;;;;;16.13;10.97;;;5.80;99.90;;;;;;5036520;28;20219;-52
2022/11/30 12:58:51;;;;;;;18.77;10.37;;;5.80;99.90;;;;;;5038797;28;20204;-52
2022/11/30 13:01:35;;;;;;;18.20;9.83;;;5.80;99.90;;;;;;5049239;28;20261;-51
2022/11/30 13:04:14;;;;;;;21.60;11.60;;;5.80;99.90;;;;;;5033335;28;21221;-54
2022/11/30 13:06:46;;;;;;;19.30;10.67;;;5.80;99.90;;;;;;5051605;28;20223;-51